createdAt,value
2018-10-03T00:01:48.737Z,65.40
2018-10-03T00:04:16.312Z,65.50
2018-10-03T00:06:43.908Z,65.80
2018-10-03T00:09:11.473Z,65.70
2018-10-03T00:11:39.049Z,65.90
2018-10-03T00:14:07.017Z,66.00
2018-10-03T00:16:34.688Z,65.70
2018-10-03T00:19:02.430Z,65.80
2018-10-03T00:21:30.345Z,65.70
2018-10-03T00:23:58.273Z,65.70
2018-10-03T00:26:26.198Z,65.80
2018-10-03T00:28:54.263Z,66.00
2018-10-03T00:31:22.224Z,66.00
2018-10-03T00:33:49.883Z,66.10
2018-10-03T00:36:17.781Z,66.00
2018-10-03T00:38:45.351Z,66.10
2018-10-03T00:41:12.924Z,66.40
2018-10-03T00:43:40.472Z,66.40
2018-10-03T00:46:08.084Z,66.40
2018-10-03T00:48:35.667Z,66.50
2018-10-03T00:51:03.339Z,66.70
2018-10-03T00:53:30.903Z,66.50
2018-10-03T00:55:58.886Z,66.70
2018-10-03T00:58:26.807Z,66.90
2018-10-03T01:00:54.812Z,66.60
2018-10-03T01:03:22.851Z,66.70
2018-10-03T01:05:50.712Z,66.70
2018-10-03T01:08:18.301Z,66.70
2018-10-03T01:10:45.870Z,66.80
2018-10-03T01:13:13.462Z,66.50
2018-10-03T01:15:41.057Z,66.50
2018-10-03T01:18:08.629Z,67.10
2018-10-03T01:20:36.176Z,66.60
2018-10-03T01:23:03.752Z,66.40
2018-10-03T01:25:31.357Z,66.30
2018-10-03T01:27:59.153Z,66.20
2018-10-03T01:30:26.917Z,66.90
2018-10-03T01:32:54.716Z,66.10
2018-10-03T01:35:22.810Z,66.30
2018-10-03T01:37:50.634Z,66.50
2018-10-03T01:40:18.384Z,66.60
2018-10-03T01:42:45.948Z,66.70
2018-10-03T01:45:13.469Z,66.80
2018-10-03T01:47:41.055Z,67.00
2018-10-03T01:50:08.797Z,66.80
2018-10-03T01:52:36.416Z,66.70
2018-10-03T01:55:04.026Z,66.80
2018-10-03T01:57:31.675Z,67.00
2018-10-03T01:59:59.685Z,66.90
2018-10-03T02:02:27.775Z,67.30
2018-10-03T02:04:55.584Z,67.10
2018-10-03T02:07:23.325Z,67.00
2018-10-03T02:09:51.118Z,67.00
2018-10-03T02:12:18.884Z,67.00
2018-10-03T02:14:46.566Z,67.00
2018-10-03T02:17:14.077Z,67.00
2018-10-03T02:19:41.647Z,66.90
2018-10-03T02:22:09.274Z,66.90
2018-10-03T02:24:36.836Z,67.20
2018-10-03T02:27:04.377Z,67.30
2018-10-03T02:29:32.052Z,67.20
2018-10-03T02:31:59.676Z,67.20
2018-10-03T02:34:27.318Z,67.10
2018-10-03T02:36:55.078Z,67.40
2018-10-03T02:39:22.844Z,67.30
2018-10-03T02:41:50.498Z,67.20
2018-10-03T02:44:18.192Z,67.10
2018-10-03T02:46:45.752Z,66.90
2018-10-03T02:49:13.325Z,67.00
2018-10-03T02:51:40.886Z,66.90
2018-10-03T02:54:08.443Z,67.00
2018-10-03T02:56:36.016Z,67.00
2018-10-03T02:59:03.973Z,66.90
2018-10-03T03:01:31.783Z,67.10
2018-10-03T03:03:59.433Z,66.90
2018-10-03T03:06:27.167Z,67.00
2018-10-03T03:08:55.104Z,66.90
2018-10-03T03:11:23.159Z,66.90
2018-10-03T03:13:51.178Z,67.30
2018-10-03T03:16:18.802Z,67.20
2018-10-03T03:18:46.430Z,67.00
2018-10-03T03:21:14.029Z,67.50
2018-10-03T03:23:41.596Z,67.20
2018-10-03T03:26:09.256Z,67.40
2018-10-03T03:28:36.864Z,67.20
2018-10-03T03:31:04.429Z,67.20
2018-10-03T03:33:32.147Z,67.10
2018-10-03T03:35:59.841Z,67.20
2018-10-03T03:38:27.568Z,67.10
2018-10-03T03:40:55.779Z,67.10
2018-10-03T03:43:23.826Z,67.10
2018-10-03T03:45:52.035Z,67.10
2018-10-03T03:48:19.732Z,67.20
2018-10-03T03:50:47.394Z,67.30
2018-10-03T03:53:15.033Z,67.30
2018-10-03T03:55:42.591Z,67.40
2018-10-03T03:58:10.144Z,67.20
2018-10-03T04:00:37.724Z,67.30
2018-10-03T04:03:05.273Z,67.40
2018-10-03T04:05:32.852Z,67.20
2018-10-03T04:08:00.453Z,67.60
2018-10-03T04:10:28.178Z,67.50
2018-10-03T04:12:56.015Z,67.40
2018-10-03T04:15:24.095Z,67.50
2018-10-03T04:17:51.899Z,67.30
2018-10-03T04:20:19.739Z,67.00
2018-10-03T04:22:47.304Z,67.20
2018-10-03T04:25:14.839Z,67.20
2018-10-03T04:27:42.523Z,67.30
2018-10-03T04:30:10.102Z,67.30
2018-10-03T04:32:37.986Z,68.10
2018-10-03T04:35:05.580Z,67.30
2018-10-03T04:37:33.150Z,66.70
2018-10-03T04:40:00.826Z,67.20
2018-10-03T04:42:28.452Z,67.30
2018-10-03T04:44:56.136Z,67.40
2018-10-03T04:47:24.143Z,67.40
2018-10-03T04:49:51.951Z,67.40
2018-10-03T04:52:19.622Z,67.40
2018-10-03T04:54:47.218Z,67.40
2018-10-03T04:57:14.760Z,67.30
2018-10-03T04:59:42.392Z,67.30
2018-10-03T05:02:09.964Z,67.50
2018-10-03T05:04:37.577Z,67.50
2018-10-03T05:07:05.167Z,67.40
2018-10-03T05:09:32.723Z,67.60
2018-10-03T05:12:14.841Z,67.50
2018-10-03T05:14:42.416Z,67.50
2018-10-03T05:17:09.947Z,67.60
2018-10-03T05:19:37.487Z,67.60
2018-10-03T05:22:05.078Z,67.60
2018-10-03T05:24:32.636Z,67.70
2018-10-03T05:27:00.316Z,67.70
2018-10-03T05:29:27.921Z,67.80
2018-10-03T05:31:55.918Z,67.80
2018-10-03T05:34:23.642Z,67.90
2018-10-03T05:36:51.574Z,67.80
2018-10-03T05:39:19.166Z,68.00
2018-10-03T05:41:46.784Z,68.00
2018-10-03T05:44:14.364Z,67.90
2018-10-03T05:46:42.702Z,68.60
2018-10-03T05:49:10.239Z,67.90
2018-10-03T05:51:37.859Z,68.00
2018-10-03T05:54:05.417Z,67.90
2018-10-03T05:56:33.020Z,68.20
2018-10-03T05:59:00.610Z,68.10
2018-10-03T06:01:28.268Z,68.00
2018-10-03T06:03:56.083Z,68.00
2018-10-03T06:06:24.068Z,67.90
2018-10-03T06:08:51.901Z,68.10
2018-10-03T06:11:19.542Z,68.10
2018-10-03T06:13:47.130Z,67.90
2018-10-03T06:16:14.728Z,68.00
2018-10-03T06:18:42.278Z,67.90
2018-10-03T06:21:09.937Z,68.00
2018-10-03T06:23:37.519Z,68.00
2018-10-03T06:26:06.090Z,68.00
2018-10-03T06:28:33.728Z,68.00
2018-10-03T06:31:01.305Z,67.90
2018-10-03T06:33:28.956Z,67.90
2018-10-03T06:35:56.635Z,67.80
2018-10-03T06:38:24.414Z,68.00
2018-10-03T06:40:52.652Z,68.00
2018-10-03T06:43:20.354Z,67.90
2018-10-03T06:45:48.012Z,68.00
2018-10-03T06:48:15.467Z,68.00
2018-10-03T06:50:43.005Z,67.90
2018-10-03T06:53:10.608Z,67.90
2018-10-03T06:55:38.203Z,67.90
2018-10-03T06:58:05.776Z,67.80
2018-10-03T07:00:33.381Z,68.00
2018-10-03T07:03:00.924Z,67.90
2018-10-03T07:05:28.585Z,67.90
2018-10-03T07:07:56.381Z,68.00
2018-10-03T07:10:24.316Z,68.00
2018-10-03T07:12:52.134Z,68.00
2018-10-03T07:15:19.725Z,67.80
2018-10-03T07:17:47.726Z,67.80
2018-10-03T07:20:15.680Z,67.90
2018-10-03T07:22:43.185Z,67.80
2018-10-03T07:25:10.744Z,67.80
2018-10-03T07:27:38.324Z,67.70
2018-10-03T07:30:05.959Z,67.80
2018-10-03T07:32:33.552Z,67.80
2018-10-03T07:35:01.273Z,67.90
2018-10-03T07:37:29.144Z,68.00
2018-10-03T07:39:56.849Z,67.90
2018-10-03T07:42:24.651Z,67.90
2018-10-03T07:44:52.484Z,68.10
2018-10-03T07:47:20.359Z,68.10
2018-10-03T07:49:48.167Z,67.90
2018-10-03T07:52:15.790Z,67.80
2018-10-03T07:54:43.406Z,67.90
2018-10-03T07:57:10.945Z,68.00
2018-10-03T07:59:38.515Z,68.40
2018-10-03T08:02:06.175Z,67.20
2018-10-03T08:04:34.858Z,66.50
2018-10-03T08:07:02.606Z,65.30
2018-10-03T08:09:30.233Z,65.20
2018-10-03T08:11:57.783Z,65.50
2018-10-03T08:14:25.532Z,64.60
2018-10-03T08:16:53.255Z,64.50
2018-10-03T08:19:21.197Z,64.40
2018-10-03T08:21:49.052Z,64.20
2018-10-03T08:24:16.662Z,64.20
2018-10-03T08:26:44.294Z,64.00
2018-10-03T08:29:11.844Z,64.00
2018-10-03T08:31:40.161Z,64.10
2018-10-03T08:34:07.837Z,64.00
2018-10-03T08:36:35.453Z,64.00
2018-10-03T08:39:04.562Z,63.90
2018-10-03T08:41:32.177Z,63.70
2018-10-03T08:43:59.862Z,63.70
2018-10-03T08:46:27.697Z,63.60
2018-10-03T08:48:55.455Z,63.70
2018-10-03T08:51:23.293Z,63.70
2018-10-03T08:53:51.150Z,63.60
2018-10-03T08:56:18.733Z,63.60
2018-10-03T08:58:46.335Z,63.50
2018-10-03T09:01:13.912Z,63.40
2018-10-03T09:03:41.538Z,63.50
2018-10-03T09:06:09.182Z,63.50
2018-10-03T09:08:36.736Z,63.30
2018-10-03T09:11:04.306Z,63.30
2018-10-03T09:13:31.909Z,63.30
2018-10-03T09:15:59.486Z,63.30
2018-10-03T09:18:27.251Z,63.30
2018-10-03T09:20:54.958Z,63.30
2018-10-03T09:23:22.721Z,63.20
2018-10-03T09:25:50.477Z,63.30
2018-10-03T09:28:18.366Z,63.30
2018-10-03T09:30:45.901Z,63.20
2018-10-03T09:33:13.480Z,63.20
2018-10-03T09:35:41.105Z,63.10
2018-10-03T09:38:09.147Z,63.10
2018-10-03T09:40:36.931Z,63.80
2018-10-03T09:43:04.798Z,63.00
2018-10-03T09:45:32.474Z,63.00
2018-10-03T09:48:00.093Z,62.80
2018-10-03T09:50:27.925Z,62.90
2018-10-03T09:52:55.759Z,62.90
2018-10-03T09:55:23.788Z,62.80
2018-10-03T09:57:51.542Z,63.00
2018-10-03T10:00:24.661Z,62.80
2018-10-03T10:02:52.664Z,62.90
2018-10-03T10:05:20.288Z,63.00
2018-10-03T10:07:47.940Z,63.10
2018-10-03T10:10:15.619Z,63.60
2018-10-03T10:12:43.237Z,64.00
2018-10-03T10:15:10.910Z,63.90
2018-10-03T10:17:38.699Z,63.90
2018-10-03T10:20:06.310Z,63.90
2018-10-03T10:22:33.948Z,64.00
2018-10-03T10:25:01.786Z,64.20
2018-10-03T10:27:29.674Z,64.20
2018-10-03T10:29:57.465Z,64.10
2018-10-03T10:32:25.293Z,64.20
2018-10-03T10:34:52.992Z,64.30
2018-10-03T10:37:20.925Z,64.20
2018-10-03T10:39:48.673Z,64.40
2018-10-03T10:42:16.349Z,64.40
2018-10-03T10:44:44.042Z,64.50
2018-10-03T10:47:11.723Z,64.60
2018-10-03T10:49:39.476Z,64.70
2018-10-03T10:52:07.109Z,64.70
2018-10-03T10:54:34.710Z,65.00
2018-10-03T10:57:02.353Z,65.00
2018-10-03T10:59:29.974Z,64.90
2018-10-03T11:01:57.817Z,65.00
2018-10-03T11:04:26.711Z,65.10
2018-10-03T11:06:54.393Z,65.20
2018-10-03T11:09:22.060Z,65.20
2018-10-03T11:11:49.877Z,65.20
2018-10-03T11:14:17.493Z,65.30
2018-10-03T11:16:45.338Z,65.30
2018-10-03T11:19:13.487Z,65.20
2018-10-03T11:21:41.240Z,65.20
2018-10-03T11:24:09.271Z,65.10
2018-10-03T11:26:37.350Z,65.10
2018-10-03T11:29:05.772Z,65.10
2018-10-03T11:31:33.808Z,65.20
2018-10-03T11:34:01.589Z,65.20
2018-10-03T11:36:29.272Z,65.80
2018-10-03T11:38:56.928Z,65.30
2018-10-03T11:41:24.488Z,65.20
2018-10-03T11:43:52.186Z,65.30
2018-10-03T11:46:23.463Z,65.30
2018-10-03T11:48:51.091Z,65.20
2018-10-03T11:51:18.747Z,65.20
2018-10-03T11:53:46.310Z,65.30
2018-10-03T11:56:14.309Z,65.30
2018-10-03T11:58:41.960Z,65.20
2018-10-03T12:01:10.891Z,65.20
2018-10-03T12:03:38.747Z,65.30
2018-10-03T12:06:06.684Z,65.30
2018-10-03T12:08:34.522Z,65.20
2018-10-03T12:11:02.164Z,65.20
2018-10-03T12:13:29.795Z,65.30
2018-10-03T12:15:57.379Z,65.40
2018-10-03T12:18:25.012Z,65.30
2018-10-03T12:20:52.908Z,65.20
2018-10-03T12:23:20.521Z,65.30
2018-10-03T12:25:51.431Z,65.30
2018-10-03T12:28:19.110Z,65.40
2018-10-03T12:30:46.710Z,65.40
2018-10-03T12:33:14.785Z,65.30
2018-10-03T12:35:42.609Z,65.30
2018-10-03T12:38:10.546Z,65.30
2018-10-03T12:40:38.305Z,65.30
2018-10-03T12:43:06.552Z,65.30
2018-10-03T12:45:35.721Z,65.30
2018-10-03T12:48:03.407Z,65.40
2018-10-03T12:50:31.110Z,65.40
2018-10-03T12:52:58.832Z,65.40
2018-10-03T12:55:26.656Z,65.30
2018-10-03T12:57:54.262Z,65.30
2018-10-03T13:00:25.477Z,65.30
2018-10-03T13:02:53.155Z,65.30
2018-10-03T13:05:20.763Z,65.30
2018-10-03T13:07:48.337Z,65.20
2018-10-03T13:10:15.924Z,65.30
2018-10-03T13:12:43.510Z,65.30
2018-10-03T13:15:11.293Z,65.20
2018-10-03T13:17:40.038Z,65.10
2018-10-03T13:20:08.103Z,64.90
2018-10-03T13:22:36.135Z,65.00
2018-10-03T13:25:03.979Z,65.00
2018-10-03T13:27:32.697Z,64.90
2018-10-03T13:30:00.734Z,64.80
2018-10-03T13:32:28.456Z,64.80
2018-10-03T13:34:56.038Z,64.90
2018-10-03T13:37:23.764Z,65.00
2018-10-03T13:39:57.189Z,65.10
2018-10-03T13:42:24.938Z,65.80
2018-10-03T13:44:52.550Z,65.10
2018-10-03T13:47:20.150Z,65.10
2018-10-03T13:49:47.721Z,65.20
2018-10-03T13:52:15.281Z,65.10
2018-10-03T13:54:42.958Z,65.20
2018-10-03T13:57:10.709Z,65.10
2018-10-03T13:59:38.672Z,65.00
2018-10-03T14:02:06.716Z,65.00
2018-10-03T14:04:34.479Z,65.00
2018-10-03T14:07:02.140Z,65.00
2018-10-03T14:09:29.724Z,64.80
2018-10-03T14:11:57.315Z,64.70
2018-10-03T14:14:24.947Z,64.70
2018-10-03T14:16:52.520Z,64.70
2018-10-03T14:19:20.101Z,64.70
2018-10-03T14:21:47.877Z,64.70
2018-10-03T14:24:15.554Z,64.70
2018-10-03T14:26:43.335Z,64.70
2018-10-03T14:29:11.188Z,64.70
2018-10-03T14:31:39.070Z,64.30
2018-10-03T14:34:06.975Z,64.20
2018-10-03T14:36:34.738Z,64.20
2018-10-03T14:39:02.415Z,64.00
2018-10-03T14:41:29.998Z,64.00
2018-10-03T14:43:57.648Z,64.00
2018-10-03T14:46:25.243Z,64.00
2018-10-03T14:48:52.891Z,64.00
2018-10-03T14:51:20.468Z,63.90
2018-10-03T14:53:48.262Z,63.70
2018-10-03T14:56:15.983Z,63.50
2018-10-03T14:58:43.980Z,63.30
2018-10-03T15:01:11.757Z,63.30
2018-10-03T15:03:39.565Z,63.20
2018-10-03T15:06:07.662Z,63.30
2018-10-03T15:08:36.113Z,63.40
2018-10-03T15:11:04.557Z,63.40
2018-10-03T15:13:32.207Z,63.60
2018-10-03T15:15:59.895Z,63.40
2018-10-03T15:18:27.509Z,63.50
2018-10-03T15:20:55.085Z,63.50
2018-10-03T15:23:22.629Z,63.50
2018-10-03T15:25:50.202Z,63.50
2018-10-03T15:28:17.827Z,64.30
2018-10-03T15:30:45.636Z,63.60
2018-10-03T15:33:13.439Z,63.70
2018-10-03T15:35:41.252Z,63.80
2018-10-03T15:38:09.967Z,63.70
2018-10-03T15:40:37.938Z,63.80
2018-10-03T15:43:05.807Z,63.80
2018-10-03T15:45:33.533Z,63.80
2018-10-03T15:48:01.186Z,64.00
2018-10-03T15:50:28.801Z,63.80
2018-10-03T15:52:56.375Z,63.70
2018-10-03T15:55:24.086Z,63.70
2018-10-03T15:57:51.658Z,63.70
2018-10-03T16:00:19.233Z,63.50
2018-10-03T16:02:46.819Z,63.40
2018-10-03T16:05:14.728Z,63.40
2018-10-03T16:07:42.645Z,63.30
2018-10-03T16:10:10.483Z,63.20
2018-10-03T16:12:38.469Z,63.20
2018-10-03T16:15:06.453Z,63.00
2018-10-03T16:17:34.499Z,63.20
2018-10-03T16:20:02.119Z,63.20
2018-10-03T16:22:29.746Z,63.10
2018-10-03T16:24:57.364Z,63.10
2018-10-03T16:27:24.954Z,63.00
2018-10-03T16:29:52.541Z,63.10
2018-10-03T16:32:23.848Z,63.10
2018-10-03T16:34:51.343Z,63.10
2018-10-03T16:37:18.916Z,63.00
2018-10-03T16:39:46.600Z,63.10
2018-10-03T16:42:14.276Z,63.20
2018-10-03T16:44:41.888Z,63.10
2018-10-03T16:47:10.251Z,63.00
2018-10-03T16:49:37.924Z,63.00
2018-10-03T16:52:05.713Z,63.00
2018-10-03T16:54:33.408Z,63.00
2018-10-03T16:57:00.979Z,62.90
2018-10-03T16:59:29.045Z,62.80
2018-10-03T17:01:56.825Z,63.30
2018-10-03T17:04:24.512Z,62.80
2018-10-03T17:06:52.552Z,62.80
2018-10-03T17:09:27.444Z,62.80
2018-10-03T17:11:55.299Z,62.80
2018-10-03T17:14:29.676Z,63.40
2018-10-03T17:16:57.440Z,62.50
2018-10-03T17:19:25.142Z,62.60
2018-10-03T17:21:53.468Z,62.70
2018-10-03T17:24:22.491Z,62.70
2018-10-03T17:26:50.044Z,62.70
2018-10-03T17:29:17.704Z,62.70
2018-10-03T17:31:45.996Z,62.70
2018-10-03T17:34:14.468Z,62.80
2018-10-03T17:36:43.494Z,62.80
2018-10-03T17:39:11.119Z,63.50
2018-10-03T17:41:38.785Z,62.70
2018-10-03T17:44:06.505Z,62.70
2018-10-03T17:46:34.271Z,62.70
2018-10-03T17:49:03.091Z,62.50
2018-10-03T17:51:31.049Z,62.50
2018-10-03T17:53:59.042Z,62.50
2018-10-03T17:56:36.685Z,62.50
2018-10-03T17:59:04.478Z,62.60
2018-10-03T18:01:33.872Z,62.60
2018-10-03T18:04:01.679Z,62.50
2018-10-03T18:06:29.277Z,62.60
2018-10-03T18:08:56.896Z,62.60
2018-10-03T18:11:24.451Z,62.60
2018-10-03T18:13:52.199Z,62.70
2018-10-03T18:16:19.674Z,62.70
2018-10-03T18:18:47.372Z,62.60
2018-10-03T18:21:14.896Z,62.60
2018-10-03T18:23:42.584Z,62.70
2018-10-03T18:26:10.187Z,62.60
2018-10-03T18:28:37.927Z,61.90
2018-10-03T18:31:05.756Z,61.30
2018-10-03T18:33:33.459Z,61.30
2018-10-03T18:36:01.222Z,60.30
2018-10-03T18:38:31.289Z,61.20
2018-10-03T18:40:59.359Z,61.00
2018-10-03T18:43:26.986Z,61.00
2018-10-03T18:45:54.662Z,61.10
2018-10-03T18:48:23.538Z,61.20
2018-10-03T18:50:51.089Z,61.50
2018-10-03T18:53:18.648Z,61.60
2018-10-03T18:55:46.188Z,61.70
2018-10-03T18:58:13.814Z,61.70
2018-10-03T19:00:41.400Z,61.80
2018-10-03T19:03:09.042Z,62.00
2018-10-03T19:05:36.736Z,62.00
2018-10-03T19:08:04.689Z,62.10
2018-10-03T19:10:32.515Z,62.20
2018-10-03T19:13:01.346Z,62.30
2018-10-03T19:15:29.124Z,62.60
2018-10-03T19:17:56.713Z,62.60
2018-10-03T19:20:24.277Z,62.50
2018-10-03T19:22:51.834Z,62.60
2018-10-03T19:25:19.396Z,62.70
2018-10-03T19:27:47.037Z,62.80
2018-10-03T19:30:14.620Z,62.80
2018-10-03T19:32:42.358Z,62.80
2018-10-03T19:35:10.120Z,62.90
2018-10-03T19:37:37.740Z,63.00
2018-10-03T19:40:05.428Z,63.10
2018-10-03T19:42:33.250Z,63.20
2018-10-03T19:45:01.195Z,63.30
2018-10-03T19:47:28.911Z,63.40
2018-10-03T19:49:56.479Z,63.50
2018-10-03T19:52:24.112Z,63.60
2018-10-03T19:54:51.673Z,63.70
2018-10-03T19:57:19.392Z,64.00
2018-10-03T19:59:46.941Z,63.80
2018-10-03T20:02:14.552Z,64.00
2018-10-03T20:04:42.072Z,64.10
2018-10-03T20:07:09.699Z,64.10
2018-10-03T20:09:37.688Z,64.10
2018-10-03T20:12:05.621Z,64.20
2018-10-03T20:14:33.469Z,64.30
2018-10-03T20:17:01.305Z,64.30
2018-10-03T20:19:28.911Z,64.40
2018-10-03T20:21:56.536Z,64.50
2018-10-03T20:24:24.096Z,64.50
2018-10-03T20:26:51.706Z,64.60
2018-10-03T20:29:19.373Z,64.70
2018-10-03T20:31:46.925Z,64.70
2018-10-03T20:34:14.579Z,64.90
2018-10-03T20:36:42.235Z,64.90
2018-10-03T20:39:10.047Z,64.90
2018-10-03T20:41:37.681Z,65.00
2018-10-03T20:44:06.056Z,65.10
2018-10-03T20:46:33.784Z,65.20
2018-10-03T20:49:01.626Z,65.10
2018-10-03T20:51:30.507Z,65.20
2018-10-03T20:53:58.068Z,64.70
2018-10-03T20:56:25.935Z,65.40
2018-10-03T20:58:53.516Z,65.50
2018-10-03T21:01:21.151Z,65.50
2018-10-03T21:03:48.737Z,65.40
2018-10-03T21:06:16.355Z,65.60
2018-10-03T21:08:43.984Z,65.70
2018-10-03T21:11:11.553Z,65.70
2018-10-03T21:13:39.163Z,65.80
2018-10-03T21:16:06.902Z,65.80
2018-10-03T21:18:34.601Z,65.80
2018-10-03T21:21:02.477Z,65.90
2018-10-03T21:23:30.518Z,65.90
2018-10-03T21:26:02.125Z,66.00
2018-10-03T21:28:29.794Z,66.10
2018-10-03T21:30:57.551Z,66.10
2018-10-03T21:33:25.143Z,66.10
2018-10-03T21:35:53.125Z,66.10
2018-10-03T21:38:20.858Z,66.20
2018-10-03T21:40:52.237Z,66.10
2018-10-03T21:43:19.862Z,66.30
2018-10-03T21:45:47.482Z,66.30
2018-10-03T21:48:15.039Z,66.90
2018-10-03T21:50:42.885Z,66.20
2018-10-03T21:53:10.458Z,66.20
2018-10-03T21:55:38.025Z,66.20
2018-10-03T21:58:05.635Z,66.30
2018-10-03T22:00:38.652Z,66.30
2018-10-03T22:03:06.248Z,66.40
2018-10-03T22:05:33.838Z,66.50
2018-10-03T22:08:01.519Z,66.40
2018-10-03T22:10:29.093Z,66.50
2018-10-03T22:12:56.657Z,66.50
2018-10-03T22:15:24.294Z,65.80
2018-10-03T22:17:51.920Z,66.40
2018-10-03T22:20:19.503Z,66.40
2018-10-03T22:22:47.098Z,66.60
2018-10-03T22:25:14.628Z,66.60
2018-10-03T22:27:42.200Z,67.40
2018-10-03T22:30:09.755Z,66.60
2018-10-03T22:32:37.435Z,66.70
2018-10-03T22:35:05.156Z,66.50
2018-10-03T22:37:32.855Z,66.70
2018-10-03T22:40:00.880Z,66.50
2018-10-03T22:42:28.523Z,66.70
2018-10-03T22:44:56.079Z,66.70
2018-10-03T22:47:23.680Z,66.70
2018-10-03T22:49:51.286Z,66.60
2018-10-03T22:52:18.816Z,66.70
2018-10-03T22:54:46.457Z,66.70
2018-10-03T22:57:13.995Z,66.80
2018-10-03T22:59:41.592Z,66.60
2018-10-03T23:02:09.154Z,66.70
2018-10-03T23:04:36.848Z,66.70
2018-10-03T23:07:04.636Z,66.80
2018-10-03T23:09:32.627Z,66.90
2018-10-03T23:12:01.057Z,66.80
2018-10-03T23:14:28.711Z,66.80
2018-10-03T23:16:56.321Z,66.90
2018-10-03T23:19:23.991Z,66.80
2018-10-03T23:21:51.761Z,67.10
2018-10-03T23:24:19.311Z,67.00
2018-10-03T23:26:46.973Z,66.90
2018-10-03T23:29:14.543Z,66.90
2018-10-03T23:31:42.092Z,66.90
2018-10-03T23:34:09.631Z,66.90
2018-10-03T23:36:37.208Z,66.90
2018-10-03T23:39:06.748Z,67.00
2018-10-03T23:41:34.474Z,67.00
2018-10-03T23:44:02.202Z,67.10
2018-10-03T23:46:30.950Z,67.00
2018-10-03T23:48:58.563Z,66.90
2018-10-03T23:51:26.157Z,66.90
2018-10-03T23:53:53.790Z,66.70
2018-10-03T23:56:21.490Z,66.70
2018-10-03T23:58:49.177Z,66.70
